Home > Products > Valid Products > TAF

000
FTUS45 KLKN 040524
TAFWMC
TAF
KWMC 040524Z 0406/0506 33010KT P6SM VCSH FEW060 BKN120
     FM041300 VRB05KT P6SM FEW250
     FM041900 25022G32KT P6SM FEW110 FEW200
     FM050300 27010KT P6SM SKC=



000
FTUS45 KLKN 040524
TAFTPH
TAF
KTPH 040524Z 0406/0506 VRB06KT P6SM FEW200
     FM041800 19018G28KT P6SM SCT200
     FM050300 VRB06KT P6SM SKC=



000
FTUS45 KLKN 040524
TAFELY
TAF
KELY 040524Z 0406/0506 17012KT P6SM FEW200
     FM041400 18018G28KT P6SM FEW200
     FM041800 19024G35KT P6SM FEW200
     FM050400 19015KT P6SM SKC=



000
FTUS45 KLKN 040524
TAFEKO
TAF
KEKO 040524Z 0406/0506 05005KT P6SM FEW120 FEW250
     FM041900 23015G25KT P6SM SCT120
     FM050300 25006KT P6SM FEW120=



000
FTUS45 KLKN 040524
TAFTPH
TAF
KTPH 040524Z 0406/0506 VRB06KT P6SM FEW200
     FM041800 19018G28KT P6SM SCT200
     FM050300 VRB06KT P6SM SKC=



000
FTUS45 KLKN 040524
TAFWMC
TAF
KWMC 040524Z 0406/0506 33010KT P6SM VCSH FEW060 BKN120
     FM041300 VRB05KT P6SM FEW250
     FM041900 25022G32KT P6SM FEW110 FEW200
     FM050300 27010KT P6SM SKC=



000
FTUS45 KLKN 040524
TAFEKO
TAF
KEKO 040524Z 0406/0506 05005KT P6SM FEW120 FEW250
     FM041900 23015G25KT P6SM SCT120
     FM050300 25006KT P6SM FEW120=



000
FTUS45 KLKN 040524
TAFELY
TAF
KELY 040524Z 0406/0506 17012KT P6SM FEW200
     FM041400 18018G28KT P6SM FEW200
     FM041800 19024G35KT P6SM FEW200
     FM050400 19015KT P6SM SKC=



000
FTUS45 KLKN 040524
TAFEKO
TAF
KEKO 040524Z 0406/0506 05005KT P6SM FEW120 FEW250
     FM041900 23015G25KT P6SM SCT120
     FM050300 25006KT P6SM FEW120=



000
FTUS45 KLKN 040524
TAFTPH
TAF
KTPH 040524Z 0406/0506 VRB06KT P6SM FEW200
     FM041800 19018G28KT P6SM SCT200
     FM050300 VRB06KT P6SM SKC=



000
FTUS45 KLKN 040524
TAFWMC
TAF
KWMC 040524Z 0406/0506 33010KT P6SM VCSH FEW060 BKN120
     FM041300 VRB05KT P6SM FEW250
     FM041900 25022G32KT P6SM FEW110 FEW200
     FM050300 27010KT P6SM SKC=



000
FTUS45 KLKN 040524
TAFELY
TAF
KELY 040524Z 0406/0506 17012KT P6SM FEW200
     FM041400 18018G28KT P6SM FEW200
     FM041800 19024G35KT P6SM FEW200
     FM050400 19015KT P6SM SKC=



000
FTUS45 KLKN 040524
TAFELY
TAF
KELY 040524Z 0406/0506 17012KT P6SM FEW200
     FM041400 18018G28KT P6SM FEW200
     FM041800 19024G35KT P6SM FEW200
     FM050400 19015KT P6SM SKC=



000
FTUS45 KLKN 040524
TAFEKO
TAF
KEKO 040524Z 0406/0506 05005KT P6SM FEW120 FEW250
     FM041900 23015G25KT P6SM SCT120
     FM050300 25006KT P6SM FEW120=



000
FTUS45 KLKN 040524
TAFTPH
TAF
KTPH 040524Z 0406/0506 VRB06KT P6SM FEW200
     FM041800 19018G28KT P6SM SCT200
     FM050300 VRB06KT P6SM SKC=



000
FTUS45 KLKN 040524
TAFWMC
TAF
KWMC 040524Z 0406/0506 33010KT P6SM VCSH FEW060 BKN120
     FM041300 VRB05KT P6SM FEW250
     FM041900 25022G32KT P6SM FEW110 FEW200
     FM050300 27010KT P6SM SKC=



000
FTUS45 KLKN 032320
TAFTPH
TAF
KTPH 032320Z 0400/0424 20015G25KT P6SM SCT200
     FM040300 19012KT P6SM SCT200
     FM040600 VRB05KT P6SM SCT200
     FM041800 19020G30KT P6SM SCT200=



000
FTUS45 KLKN 032320
TAFTPH
TAF
KTPH 032320Z 0400/0424 20015G25KT P6SM SCT200
     FM040300 19012KT P6SM SCT200
     FM040600 VRB05KT P6SM SCT200
     FM041800 19020G30KT P6SM SCT200=



000
FTUS45 KLKN 032320
TAFEKO
TAF
KEKO 032320Z 0400/0424 27014G24KT P6SM SCT130 SCT200
     FM040300 32007KT P6SM SCT130 SCT200
     FM041800 23014G24KT P6SM BKN120=



000
FTUS45 KLKN 032320
TAFELY
TAF
KELY 032320Z 0400/0424 19020G30KT P6SM SCT120 SCT200
     FM040300 18015KT P6SM SCT200
     FM041600 18020G30KT P6SM SCT200
     FM041900 19024G34KT P6SM SCT130 SCT200=



000
FTUS45 KLKN 032320
TAFELY
TAF
KELY 032320Z 0400/0424 19020G30KT P6SM SCT120 SCT200
     FM040300 18015KT P6SM SCT200
     FM041600 18020G30KT P6SM SCT200
     FM041900 19024G34KT P6SM SCT130 SCT200=



000
FTUS45 KLKN 032320
TAFWMC
TAF
KWMC 032320Z 0400/0424 27012KT P6SM BKN110 BKN200
     FM040300 32009KT P6SM BKN120
     FM041200 VRB05KT P6SM SCT120 SCT200
     FM041900 25018G28KT P6SM BKN100=



000
FTUS45 KLKN 031720
TAFWMC
TAF
KWMC 031720Z 0318/0418 25009KT P6SM SCT200
     FM031900 24015G25KT P6SM SCT110 SCT200
     FM032100 25015G25KT P6SM BKN110 BKN200
     FM040300 32009KT P6SM BKN120
     FM041200 VRB05KT P6SM SCT120 SCT200=



000
FTUS45 KLKN 031720
TAFELY
TAF
KELY 031720Z 0318/0418 17015G25KT P6SM SCT200
     FM031900 19022G32KT P6SM FEW120 SCT200
     FM040300 18015KT P6SM SCT200
     FM041600 18020G30KT P6SM SCT200=



000
FTUS45 KLKN 031720
TAFTPH
TAF
KTPH 031720Z 0318/0418 18015G25KT P6SM SCT200
     FM031900 19017G27KT P6SM SCT200
     FM040300 19012KT P6SM SCT200
     FM040600 VRB05KT P6SM SCT200=



000
FTUS45 KLKN 031720
TAFTPH
TAF
KTPH 031720Z 0318/0418 18015G25KT P6SM SCT200
     FM031900 19017G27KT P6SM SCT200
     FM040300 19012KT P6SM SCT200
     FM040600 VRB05KT P6SM SCT200=



000
FTUS45 KLKN 031720
TAFEKO
TAF
KEKO 031720Z 0318/0418 22009KT P6SM SCT200
     FM031900 24012G22KT P6SM FEW120 SCT200
     FM040300 VRB05KT P6SM SCT200=



000
FTUS45 KLKN 031720
TAFWMC
TAF
KWMC 031720Z 0318/0418 25009KT P6SM SCT200
     FM031900 24015G25KT P6SM SCT110 SCT200
     FM032100 25015G25KT P6SM BKN110 BKN200
     FM040300 32009KT P6SM BKN120
     FM041200 VRB05KT P6SM SCT120 SCT200=



000
FTUS45 KLKN 031720
TAFELY
TAF
KELY 031720Z 0318/0418 17015G25KT P6SM SCT200
     FM031900 19022G32KT P6SM FEW120 SCT200
     FM040300 18015KT P6SM SCT200
     FM041600 18020G30KT P6SM SCT200=



000
FTUS45 KLKN 031720
TAFEKO
TAF
KEKO 031720Z 0318/0418 22009KT P6SM SCT200
     FM031900 24012G22KT P6SM FEW120 SCT200
     FM040300 VRB05KT P6SM SCT200=



000
FTUS45 KLKN 031120
TAFWMC
TAF
KWMC 031120Z 0312/0412 25007KT P6SM SCT150
     FM031900 24016G26KT P6SM FEW200
     FM032200 26016G25KT P6SM VCTS SCT120CB BKN200
     FM040200 29010KT P6SM SCT200=



000
FTUS45 KLKN 031120
TAFWMC
TAF
KWMC 031120Z 0312/0412 25007KT P6SM SCT150
     FM031900 24016G26KT P6SM FEW200
     FM032200 26016G25KT P6SM VCTS SCT120CB BKN200
     FM040200 29010KT P6SM SCT200=



000
FTUS45 KLKN 031120
TAFELY
TAF
KELY 031120Z 0312/0412 18015KT P6SM FEW200
     FM031900 19022G33KT P6SM SKC
     FM032100 19022G38KT P6SM VCTS FEW100CB BKN200
      TEMPO 0322/0402 VRB25G38KT
     FM040200 18015KT P6SM SKC=



000
FTUS45 KLKN 031120
TAFEKO
TAF
KEKO 031120Z 0312/0412 23004KT P6SM SKC
     FM031900 24015G26KT P6SM FEW200
     FM032200 26012G22KT P6SM VCTS SCT120CB BKN200
     FM040200 28006KT P6SM SCT200=



000
FTUS45 KLKN 031120
TAFEKO
TAF
KEKO 031120Z 0312/0412 23004KT P6SM SKC
     FM031900 24015G26KT P6SM FEW200
     FM032200 26012G22KT P6SM VCTS SCT120CB BKN200
     FM040200 28006KT P6SM SCT200=



000
FTUS45 KLKN 031120
TAFTPH
TAF
KTPH 031120Z 0312/0412 34007KT P6SM SCT200
     FM031900 19018G28KT P6SM FEW250
     FM040200 19012KT P6SM SKC
     FM040600 17008KT P6SM SKC=



000
FTUS45 KLKN 031120
TAFEKO
TAF
KEKO 031120Z 0312/0412 23004KT P6SM SKC
     FM031900 24015G26KT P6SM FEW200
     FM032200 26012G22KT P6SM VCTS SCT120CB BKN200
     FM040200 28006KT P6SM SCT200=



000
FTUS45 KLKN 031120
TAFWMC
TAF
KWMC 031120Z 0312/0412 25007KT P6SM SCT150
     FM031900 24016G26KT P6SM FEW200
     FM032200 26016G25KT P6SM VCTS SCT120CB BKN200
     FM040200 29010KT P6SM SCT200=



000
FTUS45 KLKN 031120
TAFELY
TAF
KELY 031120Z 0312/0412 18015KT P6SM FEW200
     FM031900 19022G33KT P6SM SKC
     FM032100 19022G38KT P6SM VCTS FEW100CB BKN200
      TEMPO 0322/0402 VRB25G38KT
     FM040200 18015KT P6SM SKC=



000
FTUS45 KLKN 031120
TAFELY
TAF
KELY 031120Z 0312/0412 18015KT P6SM FEW200
     FM031900 19022G33KT P6SM SKC
     FM032100 19022G38KT P6SM VCTS FEW100CB BKN200
      TEMPO 0322/0402 VRB25G38KT
     FM040200 18015KT P6SM SKC=



000
FTUS45 KLKN 031120
TAFTPH
TAF
KTPH 031120Z 0312/0412 34007KT P6SM SCT200
     FM031900 19018G28KT P6SM FEW250
     FM040200 19012KT P6SM SKC
     FM040600 17008KT P6SM SKC=



000
FTUS45 KLKN 031120
TAFEKO
TAF
KEKO 031120Z 0312/0412 23004KT P6SM SKC
     FM031900 24015G26KT P6SM FEW200
     FM032200 26012G22KT P6SM VCTS SCT120CB BKN200
     FM040200 28006KT P6SM SCT200=



000
FTUS45 KLKN 031120
TAFTPH
TAF
KTPH 031120Z 0312/0412 34007KT P6SM SCT200
     FM031900 19018G28KT P6SM FEW250
     FM040200 19012KT P6SM SKC
     FM040600 17008KT P6SM SKC=



000
FTUS45 KLKN 031120
TAFTPH
TAF
KTPH 031120Z 0312/0412 34007KT P6SM SCT200
     FM031900 19018G28KT P6SM FEW250
     FM040200 19012KT P6SM SKC
     FM040600 17008KT P6SM SKC=



000
FTUS45 KLKN 031120
TAFELY
TAF
KELY 031120Z 0312/0412 18015KT P6SM FEW200
     FM031900 19022G33KT P6SM SKC
     FM032100 19022G38KT P6SM VCTS FEW100CB BKN200
      TEMPO 0322/0402 VRB25G38KT
     FM040200 18015KT P6SM SKC=



000
FTUS45 KLKN 030520
TAFEKO
TAF
KEKO 030520Z 0306/0406 23004KT P6SM SKC
     FM031900 24015G26KT P6SM FEW200
     FM040200 28006KT P6SM SCT200=



000
FTUS45 KLKN 030520
TAFTPH
TAF
KTPH 030520Z 0306/0406 16008KT P6SM SCT200
     FM031000 34007KT P6SM SCT200
     FM031900 19018G28KT P6SM FEW250
     FM040200 19012KT P6SM SKC=



000
FTUS45 KLKN 030520
TAFWMC
TAF
KWMC 030520Z 0306/0406 25010G20KT P6SM SCT150
     FM031900 24016G26KT P6SM FEW200
     FM040200 29010KT P6SM SCT200=



000
FTUS45 KLKN 030520
TAFWMC
TAF
KWMC 030520Z 0306/0406 25010G20KT P6SM SCT150
     FM031900 24016G26KT P6SM FEW200
     FM040200 29010KT P6SM SCT200=



000
FTUS45 KLKN 030520
TAFELY
TAF
KELY 030520Z 0306/0406 18015KT P6SM FEW200
     FM031900 19022G33KT P6SM SKC
     FM040200 18015G25KT P6SM SKC=



000
FTUS45 KLKN 030520
TAFTPH
TAF
KTPH 030520Z 0306/0406 16008KT P6SM SCT200
     FM031000 34007KT P6SM SCT200
     FM031900 19018G28KT P6SM FEW250
     FM040200 19012KT P6SM SKC=



000
FTUS45 KLKN 030520
TAFEKO
TAF
KEKO 030520Z 0306/0406 23004KT P6SM SKC
     FM031900 24015G26KT P6SM FEW200
     FM040200 28006KT P6SM SCT200=



000
FTUS45 KLKN 030520
TAFEKO
TAF
KEKO 030520Z 0306/0406 23004KT P6SM SKC
     FM031900 24015G26KT P6SM FEW200
     FM040200 28006KT P6SM SCT200=



000
FTUS45 KLKN 030520
TAFTPH
TAF
KTPH 030520Z 0306/0406 16008KT P6SM SCT200
     FM031000 34007KT P6SM SCT200
     FM031900 19018G28KT P6SM FEW250
     FM040200 19012KT P6SM SKC=



000
FTUS45 KLKN 030520
TAFELY
TAF
KELY 030520Z 0306/0406 18015KT P6SM FEW200
     FM031900 19022G33KT P6SM SKC
     FM040200 18015G25KT P6SM SKC=



000
FTUS45 KLKN 030520
TAFWMC
TAF
KWMC 030520Z 0306/0406 25010G20KT P6SM SCT150
     FM031900 24016G26KT P6SM FEW200
     FM040200 29010KT P6SM SCT200=



000
FTUS45 KLKN 030520
TAFELY
TAF
KELY 030520Z 0306/0406 18015KT P6SM FEW200
     FM031900 19022G33KT P6SM SKC
     FM040200 18015G25KT P6SM SKC=



000
FTUS45 KLKN 022320
TAFTPH
TAF
KTPH 022320Z 0300/0324 18018G28KT P6SM SKC
     FM030300 16008KT P6SM SCT200
     FM031000 34007KT P6SM SCT200
     FM031900 19018G28KT P6SM FEW250=



000
FTUS45 KLKN 022320
TAFELY
TAF
KELY 022320Z 0300/0324 18020G30KT P6SM FEW080 SCT150
     FM030200 18015KT P6SM FEW200
     FM031900 19022G33KT P6SM SKC=



000
FTUS45 KLKN 022320
TAFTPH
TAF
KTPH 022320Z 0300/0324 18018G28KT P6SM SKC
     FM030300 16008KT P6SM SCT200
     FM031000 34007KT P6SM SCT200
     FM031900 19018G28KT P6SM FEW250=



000
FTUS45 KLKN 022320
TAFWMC
TAF
KWMC 022320Z 0300/0324 24008KT P6SM SKC
     FM030300 24005KT P6SM SCT150
     FM031900 24016G26KT P6SM FEW200=



000
FTUS45 KLKN 022320
TAFEKO
TAF
KEKO 022320Z 0300/0324 24015G25KT P6SM SKC
     FM030300 23004KT P6SM SKC
     FM031900 24015G26KT P6SM FEW200=



000
FTUS45 KLKN 022320
TAFEKO
TAF
KEKO 022320Z 0300/0324 24015G25KT P6SM SKC
     FM030300 23004KT P6SM SKC
     FM031900 24015G26KT P6SM FEW200=



000
FTUS45 KLKN 022320
TAFWMC
TAF
KWMC 022320Z 0300/0324 24008KT P6SM SKC
     FM030300 24005KT P6SM SCT150
     FM031900 24016G26KT P6SM FEW200=



000
FTUS45 KLKN 022320
TAFELY
TAF
KELY 022320Z 0300/0324 18020G30KT P6SM FEW080 SCT150
     FM030200 18015KT P6SM FEW200
     FM031900 19022G33KT P6SM SKC=



000
FTUS45 KLKN 022320
TAFELY
TAF
KELY 022320Z 0300/0324 18020G30KT P6SM FEW080 SCT150
     FM030200 18015KT P6SM FEW200
     FM031900 19022G33KT P6SM SKC=



000
FTUS45 KLKN 022320
TAFWMC
TAF
KWMC 022320Z 0300/0324 24008KT P6SM SKC
     FM030300 24005KT P6SM SCT150
     FM031900 24016G26KT P6SM FEW200=



000
FTUS45 KLKN 022320
TAFTPH
TAF
KTPH 022320Z 0300/0324 18018G28KT P6SM SKC
     FM030300 16008KT P6SM SCT200
     FM031000 34007KT P6SM SCT200
     FM031900 19018G28KT P6SM FEW250=



000
FTUS45 KLKN 022320
TAFELY
TAF
KELY 022320Z 0300/0324 18020G30KT P6SM FEW080 SCT150
     FM030200 18015KT P6SM FEW200
     FM031900 19022G33KT P6SM SKC=



000
FTUS45 KLKN 022320
TAFTPH
TAF
KTPH 022320Z 0300/0324 18018G28KT P6SM SKC
     FM030300 16008KT P6SM SCT200
     FM031000 34007KT P6SM SCT200
     FM031900 19018G28KT P6SM FEW250=



000
FTUS45 KLKN 022216 AAA
TAFELY
TAF AMD
KELY 022216Z 0222/0318 18020G30KT P6SM FEW080 SCT120
     FM030200 18015KT P6SM FEW080 FEW150=



000
FTUS45 KLKN 022216 AAA
TAFELY
TAF AMD
KELY 022216Z 0222/0318 18020G30KT P6SM FEW080 SCT120
     FM030200 18015KT P6SM FEW080 FEW150=



000
FTUS45 KLKN 022216 AAA
TAFELY
TAF AMD
KELY 022216Z 0222/0318 18020G30KT P6SM FEW080 SCT120
     FM030200 18015KT P6SM FEW080 FEW150=



000
FTUS45 KLKN 021724
TAFELY
TAF
KELY 021724Z 0218/0318 18011KT P6SM SCT070
     FM021900 19020G35KT P6SM VCTS FEW060 BKN120CB
     FM030200 18015KT P6SM FEW080 FEW150=



000
FTUS45 KLKN 021724
TAFWMC
TAF
KWMC 021724Z 0218/0318 24008KT P6SM SKC
     FM021900 24015G28KT P6SM SKC
      TEMPO 0221/0301 6SM BLDU
     FM030300 25002KT P6SM SKC=



000
FTUS45 KLKN 021724
TAFEKO
TAF
KEKO 021724Z 0218/0318 26010KT P6SM SKC
     FM021900 24015G28KT P6SM SKC
      TEMPO 0220/0224 6SM BLDU
     FM030200 26006KT P6SM SKC=



000
FTUS45 KLKN 021724
TAFTPH
TAF
KTPH 021724Z 0218/0318 18018G28KT P6SM SCT200
     FM030200 20008KT P6SM SCT200
     FM030900 35007KT P6SM SCT200=



000
FTUS45 KLKN 021724
TAFEKO
TAF
KEKO 021724Z 0218/0318 26010KT P6SM SKC
     FM021900 24015G28KT P6SM SKC
      TEMPO 0220/0224 6SM BLDU
     FM030200 26006KT P6SM SKC=



000
FTUS45 KLKN 021724
TAFELY
TAF
KELY 021724Z 0218/0318 18011KT P6SM SCT070
     FM021900 19020G35KT P6SM VCTS FEW060 BKN120CB
     FM030200 18015KT P6SM FEW080 FEW150=



000
FTUS45 KLKN 021724
TAFTPH
TAF
KTPH 021724Z 0218/0318 18018G28KT P6SM SCT200
     FM030200 20008KT P6SM SCT200
     FM030900 35007KT P6SM SCT200=



000
FTUS45 KLKN 021724
TAFWMC
TAF
KWMC 021724Z 0218/0318 24008KT P6SM SKC
     FM021900 24015G28KT P6SM SKC
      TEMPO 0221/0301 6SM BLDU
     FM030300 25002KT P6SM SKC=



000
FTUS45 KLKN 021120
TAFEKO
TAF
KEKO 021120Z 0212/0312 VRB05KT P6SM SKC
     FM021800 23015G28KT P6SM SKC
      TEMPO 0220/0224 6SM BLDU
     FM030200 26006KT P6SM SKC=



000
FTUS45 KLKN 021120
TAFELY
TAF
KELY 021120Z 0212/0312 21011KT P6SM SKC
     FM022000 19018G30KT P6SM VCTS SCT120CB BKN200
     FM030100 20012KT P6SM SCT120 SCT200=



000
FTUS45 KLKN 021120
TAFTPH
TAF
KTPH 021120Z 0212/0312 01005KT P6SM SCT200
     FM021600 18007KT P6SM SKC
     FM021800 18020G30KT P6SM SCT120 BKN200
      TEMPO 0220/0224 6SM BLDU
     FM030200 20008KT P6SM SCT200=



000
FTUS45 KLKN 021120
TAFWMC
TAF
KWMC 021120Z 0212/0312 VRB06KT P6SM SKC
     FM021800 25015G28KT P6SM SCT200
      TEMPO 0221/0301 6SM BLDU FEW002
     FM030300 25012KT P6SM SKC=



000
FTUS45 KLKN 021120
TAFTPH
TAF
KTPH 021120Z 0212/0312 01005KT P6SM SCT200
     FM021600 18007KT P6SM SKC
     FM021800 18020G30KT P6SM SCT120 BKN200
      TEMPO 0220/0224 6SM BLDU
     FM030200 20008KT P6SM SCT200=



000
FTUS45 KLKN 021120
TAFEKO
TAF
KEKO 021120Z 0212/0312 VRB05KT P6SM SKC
     FM021800 23015G28KT P6SM SKC
      TEMPO 0220/0224 6SM BLDU
     FM030200 26006KT P6SM SKC=



000
FTUS45 KLKN 021120
TAFWMC
TAF
KWMC 021120Z 0212/0312 VRB06KT P6SM SKC
     FM021800 25015G28KT P6SM SCT200
      TEMPO 0221/0301 6SM BLDU FEW002
     FM030300 25012KT P6SM SKC=



000
FTUS45 KLKN 021120
TAFTPH
TAF
KTPH 021120Z 0212/0312 01005KT P6SM SCT200
     FM021600 18007KT P6SM SKC
     FM021800 18020G30KT P6SM SCT120 BKN200
      TEMPO 0220/0224 6SM BLDU
     FM030200 20008KT P6SM SCT200=



000
FTUS45 KLKN 021120
TAFWMC
TAF
KWMC 021120Z 0212/0312 VRB06KT P6SM SKC
     FM021800 25015G28KT P6SM SCT200
      TEMPO 0221/0301 6SM BLDU FEW002
     FM030300 25012KT P6SM SKC=



000
FTUS45 KLKN 021120
TAFWMC
TAF
KWMC 021120Z 0212/0312 VRB06KT P6SM SKC
     FM021800 25015G28KT P6SM SCT200
      TEMPO 0221/0301 6SM BLDU FEW002
     FM030300 25012KT P6SM SKC=



000
FTUS45 KLKN 021120
TAFEKO
TAF
KEKO 021120Z 0212/0312 VRB05KT P6SM SKC
     FM021800 23015G28KT P6SM SKC
      TEMPO 0220/0224 6SM BLDU
     FM030200 26006KT P6SM SKC=



000
FTUS45 KLKN 021120
TAFTPH
TAF
KTPH 021120Z 0212/0312 01005KT P6SM SCT200
     FM021600 18007KT P6SM SKC
     FM021800 18020G30KT P6SM SCT120 BKN200
      TEMPO 0220/0224 6SM BLDU
     FM030200 20008KT P6SM SCT200=



000
FTUS45 KLKN 021120
TAFEKO
TAF
KEKO 021120Z 0212/0312 VRB05KT P6SM SKC
     FM021800 23015G28KT P6SM SKC
      TEMPO 0220/0224 6SM BLDU
     FM030200 26006KT P6SM SKC=



000
FTUS45 KLKN 021120
TAFELY
TAF
KELY 021120Z 0212/0312 21011KT P6SM SKC
     FM022000 19018G30KT P6SM VCTS SCT120CB BKN200
     FM030100 20012KT P6SM SCT120 SCT200=



000
FTUS45 KLKN 021120
TAFELY
TAF
KELY 021120Z 0212/0312 21011KT P6SM SKC
     FM022000 19018G30KT P6SM VCTS SCT120CB BKN200
     FM030100 20012KT P6SM SCT120 SCT200=



000
FTUS45 KLKN 021120
TAFELY
TAF
KELY 021120Z 0212/0312 21011KT P6SM SKC
     FM022000 19018G30KT P6SM VCTS SCT120CB BKN200
     FM030100 20012KT P6SM SCT120 SCT200=



000
FTUS45 KLKN 020548
TAFELY
TAF
KELY 020548Z 0206/0306 17011KT P6SM SKC
     FM022000 19018G30KT P6SM VCTS SCT120CB BKN200
     FM030100 20012KT P6SM SCT120 SCT200=



000
FTUS45 KLKN 020548
TAFTPH
TAF
KTPH 020548Z 0206/0306 16005KT P6SM SKC
     FM021600 18007KT P6SM SKC
     FM021800 18020G30KT P6SM SCT120 BKN200
     FM030200 20008KT P6SM SCT200=



000
FTUS45 KLKN 020548
TAFEKO
TAF
KEKO 020548Z 0206/0306 VRB05KT P6SM SKC
     FM021800 23015G28KT P6SM SKC
     FM030200 26006KT P6SM SKC=



000
FTUS45 KLKN 020548
TAFTPH
TAF
KTPH 020548Z 0206/0306 16005KT P6SM SKC
     FM021600 18007KT P6SM SKC
     FM021800 18020G30KT P6SM SCT120 BKN200
     FM030200 20008KT P6SM SCT200=



000
FTUS45 KLKN 020548
TAFWMC
TAF
KWMC 020548Z 0206/0306 VRB06KT P6SM SCT200
     FM021800 25015G28KT P6SM SKC
     FM030300 25012KT P6SM SKC=



000
FTUS45 KLKN 020548
TAFEKO
TAF
KEKO 020548Z 0206/0306 VRB05KT P6SM SKC
     FM021800 23015G28KT P6SM SKC
     FM030200 26006KT P6SM SKC=



000
FTUS45 KLKN 020548
TAFELY
TAF
KELY 020548Z 0206/0306 17011KT P6SM SKC
     FM022000 19018G30KT P6SM VCTS SCT120CB BKN200
     FM030100 20012KT P6SM SCT120 SCT200=



000
FTUS45 KLKN 020548
TAFWMC
TAF
KWMC 020548Z 0206/0306 VRB06KT P6SM SCT200
     FM021800 25015G28KT P6SM SKC
     FM030300 25012KT P6SM SKC=



000
FTUS45 KLKN 012320
TAFEKO
TAF
KEKO 012320Z 0200/0224 26015G25KT P6SM FEW150
     FM020200 22006KT P6SM SKC
     FM021800 23015G28KT P6SM SKC=



000
FTUS45 KLKN 012320
TAFWMC
TAF
KWMC 012320Z 0200/0224 25010G20KT P6SM SCT200
     FM020200 23007KT P6SM FEW200
     FM021800 25015G28KT P6SM SKC=



000
FTUS45 KLKN 012320
TAFWMC
TAF
KWMC 012320Z 0200/0224 25010G20KT P6SM SCT200
     FM020200 23007KT P6SM FEW200
     FM021800 25015G28KT P6SM SKC=



000
FTUS45 KLKN 012320
TAFTPH
TAF
KTPH 012320Z 0200/0224 18015G25KT P6SM SKC
     FM020200 18011KT P6SM SKC
     FM020600 01007KT P6SM SKC
     FM021600 18007KT P6SM SKC
     FM021800 18020G30KT P6SM SCT120 BKN200=



000
FTUS45 KLKN 012320
TAFEKO
TAF
KEKO 012320Z 0200/0224 26015G25KT P6SM FEW150
     FM020200 22006KT P6SM SKC
     FM021800 23015G28KT P6SM SKC=



000
FTUS45 KLKN 012320
TAFTPH
TAF
KTPH 012320Z 0200/0224 18015G25KT P6SM SKC
     FM020200 18011KT P6SM SKC
     FM020600 01007KT P6SM SKC
     FM021600 18007KT P6SM SKC
     FM021800 18020G30KT P6SM SCT120 BKN200=



000
FTUS45 KLKN 012320
TAFELY
TAF
KELY 012320Z 0200/0224 19013G23KT P6SM FEW120
     FM020300 17011KT P6SM SKC
     FM021800 19018G30KT P6SM SCT120 BKN200=



000
FTUS45 KLKN 012320
TAFELY
TAF
KELY 012320Z 0200/0224 19013G23KT P6SM FEW120
     FM020300 17011KT P6SM SKC
     FM021800 19018G30KT P6SM SCT120 BKN200=



000
FTUS45 KLKN 011720
TAFWMC
TAF
KWMC 011720Z 0118/0218 25007KT P6SM SKC
     FM012000 23008G18KT P6SM SCT200
     FM020200 23007KT P6SM SKC=



000
FTUS45 KLKN 011720
TAFWMC
TAF
KWMC 011720Z 0118/0218 25007KT P6SM SKC
     FM012000 23008G18KT P6SM SCT200
     FM020200 23007KT P6SM SKC=



000
FTUS45 KLKN 011720
TAFEKO
TAF
KEKO 011720Z 0118/0218 22007KT P6SM SKC
     FM012000 21012G22KT P6SM FEW120
     FM020200 22006KT P6SM SKC=



000
FTUS45 KLKN 011720
TAFTPH
TAF
KTPH 011720Z 0118/0218 18015G25KT P6SM SKC
     FM020200 18011KT P6SM SKC
     FM020600 01007KT P6SM SKC
     FM021600 18007KT P6SM SKC=



000
FTUS45 KLKN 011720
TAFELY
TAF
KELY 011720Z 0118/0218 18015G25KT P6SM FEW120
     FM020300 17013KT P6SM SKC=



000
FTUS45 KLKN 011720
TAFEKO
TAF
KEKO 011720Z 0118/0218 22007KT P6SM SKC
     FM012000 21012G22KT P6SM FEW120
     FM020200 22006KT P6SM SKC=



000
FTUS45 KLKN 011720
TAFTPH
TAF
KTPH 011720Z 0118/0218 18015G25KT P6SM SKC
     FM020200 18011KT P6SM SKC
     FM020600 01007KT P6SM SKC
     FM021600 18007KT P6SM SKC=



000
FTUS45 KLKN 011720
TAFEKO
TAF
KEKO 011720Z 0118/0218 22007KT P6SM SKC
     FM012000 21012G22KT P6SM FEW120
     FM020200 22006KT P6SM SKC=



000
FTUS45 KLKN 011720
TAFELY
TAF
KELY 011720Z 0118/0218 18015G25KT P6SM FEW120
     FM020300 17013KT P6SM SKC=



000
FTUS45 KLKN 011720
TAFTPH
TAF
KTPH 011720Z 0118/0218 18015G25KT P6SM SKC
     FM020200 18011KT P6SM SKC
     FM020600 01007KT P6SM SKC
     FM021600 18007KT P6SM SKC=



000
FTUS45 KLKN 011720
TAFTPH
TAF
KTPH 011720Z 0118/0218 18015G25KT P6SM SKC
     FM020200 18011KT P6SM SKC
     FM020600 01007KT P6SM SKC
     FM021600 18007KT P6SM SKC=



000
FTUS45 KLKN 011720
TAFELY
TAF
KELY 011720Z 0118/0218 18015G25KT P6SM FEW120
     FM020300 17013KT P6SM SKC=



000
FTUS45 KLKN 011720
TAFELY
TAF
KELY 011720Z 0118/0218 18015G25KT P6SM FEW120
     FM020300 17013KT P6SM SKC=



000
FTUS45 KLKN 011720
TAFWMC
TAF
KWMC 011720Z 0118/0218 25007KT P6SM SKC
     FM012000 23008G18KT P6SM SCT200
     FM020200 23007KT P6SM SKC=



000
FTUS45 KLKN 011720
TAFEKO
TAF
KEKO 011720Z 0118/0218 22007KT P6SM SKC
     FM012000 21012G22KT P6SM FEW120
     FM020200 22006KT P6SM SKC=



000
FTUS45 KLKN 011720
TAFWMC
TAF
KWMC 011720Z 0118/0218 25007KT P6SM SKC
     FM012000 23008G18KT P6SM SCT200
     FM020200 23007KT P6SM SKC=



000
FTUS45 KLKN 011120
TAFTPH
TAF
KTPH 011120Z 0112/0212 01008KT P6SM SKC
     FM011800 18015G25KT P6SM SKC
     FM020200 18008KT P6SM SKC
     FM020500 02006KT P6SM SKC=



000
FTUS45 KLKN 011120
TAFWMC
TAF
KWMC 011120Z 0112/0212 VRB04KT P6SM SKC
     FM012000 23008G18KT P6SM SKC
     FM020230 21007KT P6SM SKC=



000
FTUS45 KLKN 011120
TAFELY
TAF
KELY 011120Z 0112/0212 19012KT P6SM SKC
     FM011800 18015G24KT P6SM FEW120
     FM020230 18013KT P6SM SKC=



000
FTUS45 KLKN 011120
TAFELY
TAF
KELY 011120Z 0112/0212 19012KT P6SM SKC
     FM011800 18015G24KT P6SM FEW120
     FM020230 18013KT P6SM SKC=



000
FTUS45 KLKN 011120
TAFWMC
TAF
KWMC 011120Z 0112/0212 VRB04KT P6SM SKC
     FM012000 23008G18KT P6SM SKC
     FM020230 21007KT P6SM SKC=



000
FTUS45 KLKN 011120
TAFTPH
TAF
KTPH 011120Z 0112/0212 01008KT P6SM SKC
     FM011800 18015G25KT P6SM SKC
     FM020200 18008KT P6SM SKC
     FM020500 02006KT P6SM SKC=



000
FTUS45 KLKN 011120
TAFWMC
TAF
KWMC 011120Z 0112/0212 VRB04KT P6SM SKC
     FM012000 23008G18KT P6SM SKC
     FM020230 21007KT P6SM SKC=



000
FTUS45 KLKN 011120
TAFEKO
TAF
KEKO 011120Z 0112/0212 VRB03KT P6SM SKC
     FM012000 21012G22KT P6SM FEW150
     FM020230 22006KT P6SM SKC=



000
FTUS45 KLKN 011120
TAFWMC
TAF
KWMC 011120Z 0112/0212 VRB04KT P6SM SKC
     FM012000 23008G18KT P6SM SKC
     FM020230 21007KT P6SM SKC=



000
FTUS45 KLKN 011120
TAFTPH
TAF
KTPH 011120Z 0112/0212 01008KT P6SM SKC
     FM011800 18015G25KT P6SM SKC
     FM020200 18008KT P6SM SKC
     FM020500 02006KT P6SM SKC=



000
FTUS45 KLKN 011120
TAFEKO
TAF
KEKO 011120Z 0112/0212 VRB03KT P6SM SKC
     FM012000 21012G22KT P6SM FEW150
     FM020230 22006KT P6SM SKC=



000
FTUS45 KLKN 011120
TAFELY
TAF
KELY 011120Z 0112/0212 19012KT P6SM SKC
     FM011800 18015G24KT P6SM FEW120
     FM020230 18013KT P6SM SKC=



000
FTUS45 KLKN 011120
TAFTPH
TAF
KTPH 011120Z 0112/0212 01008KT P6SM SKC
     FM011800 18015G25KT P6SM SKC
     FM020200 18008KT P6SM SKC
     FM020500 02006KT P6SM SKC=



000
FTUS45 KLKN 011120
TAFELY
TAF
KELY 011120Z 0112/0212 19012KT P6SM SKC
     FM011800 18015G24KT P6SM FEW120
     FM020230 18013KT P6SM SKC=



    US Dept of Commerce
    National Oceanic and Atmospheric Administration
    National Weather Service
    1325 East West Highway
    Silver Spring, MD 20910
    Page Author: NWS Internet Services Team
Disclaimer
Information Quality
Credits
Glossary
Privacy Policy
Freedom of Information Act (FOIA)
About Us
Career Opportunities